Time;durP1;ratioP1;P1;durP2;ratioP2;P2;SDS_P1;SDS_P2;PMS_P1;PMS_P2;Temp;Humidity;BMP_temperature;BMP_pressure;BME280_temperature;BME280_humidity;BME280_pressure;Samples;Min_cycle;Max_cycle;Signal;HPM_P1;HPM_P2
2022/07/25 07:01:45;;;;;;;6.93;6.07;;;;;;;;;;13070877;22;20020;-86
2022/07/25 07:07:08;;;;;;;7.50;6.55;;;;;;;;;;13052889;22;20483;-84
2022/07/25 07:12:23;;;;;;;7.05;6.13;;;;;;;;;;12937676;22;1519025;-84
2022/07/25 07:17:29;;;;;;;7.47;6.60;;;;;;;;;;13002947;22;20008;-83
2022/07/25 07:22:31;;;;;;;6.82;5.80;;;;;;;;;;12990807;22;20000;-82
2022/07/25 07:27:42;;;;;;;9.10;7.40;;;;;;;;;;12999582;22;20003;-82
2022/07/25 07:32:53;;;;;;;9.00;6.97;;;;;;;;;;13000238;22;20022;-83
2022/07/25 07:38:00;;;;;;;10.65;9.02;;;;;;;;;;12958629;22;20091;-83
2022/07/25 07:43:07;;;;;;;8.48;7.65;;;;;;;;;;12996846;22;20008;-83
2022/07/25 07:48:08;;;;;;;7.97;7.18;;;;;;;;;;12997262;22;20003;-82
2022/07/25 07:53:09;;;;;;;7.80;7.00;;;;;;;;;;13000848;22;20353;-83
2022/07/25 07:58:17;;;;;;;8.65;6.90;;;;;;;;;;12997134;22;20003;-83
2022/07/25 08:03:24;;;;;;;7.85;5.82;;;;;;;;;;13000921;22;20073;-82
2022/07/25 08:08:27;;;;;;;8.32;6.78;;;;;;;;;;13002193;22;20038;-83
2022/07/25 08:13:30;;;;;;;8.50;7.13;;;;;;;;;;13000813;22;20015;-81
2022/07/25 08:18:32;;;;;;;8.07;6.60;;;;;;;;;;13001697;22;20008;-83
2022/07/25 08:23:37;;;;;;;8.32;6.10;;;;;;;;;;13001190;22;20084;-82
2022/07/25 08:28:41;;;;;;;8.00;7.07;;;;;;;;;;13009707;22;20007;-84
2022/07/25 08:33:42;;;;;;;10.65;9.52;;;;;;;;;;12982103;22;20071;-81
2022/07/25 08:38:43;;;;;;;9.48;7.55;;;;;;;;;;13015600;22;20026;-80
2022/07/25 08:43:46;;;;;;;8.25;7.45;;;;;;;;;;12980722;22;20004;-81
2022/07/25 08:48:51;;;;;;;9.18;7.65;;;;;;;;;;13001055;22;20011;-81
2022/07/25 08:53:54;;;;;;;7.75;7.05;;;;;;;;;;13033764;22;20020;-79
2022/07/25 08:58:57;;;;;;;8.63;7.72;;;;;;;;;;13031432;22;20007;-80
2022/07/25 09:03:59;;;;;;;8.40;7.60;;;;;;;;;;12990793;22;20008;-81
2022/07/25 09:09:04;;;;;;;9.15;7.35;;;;;;;;;;12979462;22;20010;-82
2022/07/25 09:14:06;;;;;;;8.45;6.45;;;;;;;;;;13005665;22;20057;-82
2022/07/25 09:19:09;;;;;;;8.77;6.50;;;;;;;;;;12978903;22;20003;-82
2022/07/25 09:24:25;;;;;;;6.20;5.68;;;;;;;;;;12987427;22;20004;-83
2022/07/25 09:29:33;;;;;;;8.43;6.80;;;;;;;;;;13005847;22;20000;-82
2022/07/25 09:34:40;;;;;;;9.10;6.55;;;;;;;;;;13009981;22;20007;-81
2022/07/25 09:39:46;;;;;;;7.47;6.63;;;;;;;;;;12984263;22;20023;-83
2022/07/25 09:45:08;;;;;;;7.80;6.25;;;;;;;;;;12989253;22;20059;-83
2022/07/25 09:50:09;;;;;;;7.80;6.43;;;;;;;;;;12980863;22;20008;-83
2022/07/25 09:55:13;;;;;;;9.57;6.30;;;;;;;;;;12986724;22;20030;-83
2022/07/25 10:00:16;;;;;;;6.93;6.30;;;;;;;;;;12987102;22;20012;-84
2022/07/25 10:05:25;;;;;;;9.60;6.88;;;;;;;;;;13012896;22;20015;-83
2022/07/25 10:10:33;;;;;;;8.60;7.75;;;;;;;;;;12978053;22;20091;-83
2022/07/25 10:15:50;;;;;;;7.88;6.80;;;;;;;;;;13006550;22;20027;-82
2022/07/25 10:20:53;;;;;;;8.07;7.28;;;;;;;;;;12983684;22;20007;-82
2022/07/25 10:26:12;;;;;;;8.48;7.03;;;;;;;;;;13014617;22;19995;-83
2022/07/25 10:31:20;;;;;;;7.23;6.33;;;;;;;;;;13003954;22;20035;-82
2022/07/25 10:36:21;;;;;;;10.17;7.10;;;;;;;;;;13010677;22;20007;-82
2022/07/25 10:41:25;;;;;;;7.55;6.85;;;;;;;;;;12983947;22;20003;-82
2022/07/25 10:46:53;;;;;;;8.55;6.05;;;;;;;;;;13015477;22;20000;-84
2022/07/25 10:52:18;;;;;;;11.48;9.23;;;;;;;;;;13016079;22;20004;-83
2022/07/25 10:57:34;;;;;;;6.57;5.70;;;;;;;;;;12985657;22;20038;-82
2022/07/25 11:02:35;;;;;;;11.80;6.13;;;;;;;;;;12983778;22;20067;-82
2022/07/25 11:07:36;;;;;;;6.55;5.57;;;;;;;;;;12981370;22;20000;-83
2022/07/25 11:13:05;;;;;;;6.18;5.57;;;;;;;;;;12982660;22;20094;-82
2022/07/25 11:18:18;;;;;;;7.35;5.75;;;;;;;;;;12926853;22;20008;-81
2022/07/25 11:23:24;;;;;;;10.95;9.77;;;;;;;;;;13016259;22;20038;-83
2022/07/25 11:28:47;;;;;;;8.40;5.28;;;;;;;;;;13011924;22;20065;-82
2022/07/25 11:33:50;;;;;;;9.38;5.75;;;;;;;;;;13004268;22;20069;-83
2022/07/25 11:38:58;;;;;;;6.60;5.90;;;;;;;;;;12976676;22;20065;-83
2022/07/25 11:44:02;;;;;;;6.63;4.70;;;;;;;;;;12976575;22;20007;-82
2022/07/25 11:49:21;;;;;;;7.13;3.90;;;;;;;;;;12976341;22;20012;-82
2022/07/25 11:54:23;;;;;;;6.70;4.30;;;;;;;;;;12979283;22;20404;-83
2022/07/25 11:59:25;;;;;;;6.05;4.10;;;;;;;;;;12978630;22;20026;-83
2022/07/25 12:04:27;;;;;;;5.53;4.05;;;;;;;;;;12951936;22;20035;-81
2022/07/25 12:09:28;;;;;;;5.85;4.50;;;;;;;;;;12980503;22;20003;-82
2022/07/25 12:14:29;;;;;;;5.78;3.70;;;;;;;;;;12978417;22;20467;-82
2022/07/25 12:19:31;;;;;;;11.50;3.95;;;;;;;;;;12979964;22;20007;-82
2022/07/25 12:24:32;;;;;;;5.82;3.92;;;;;;;;;;12979840;22;20007;-82
2022/07/25 12:30:03;;;;;;;5.70;4.95;;;;;;;;;;12988061;22;20023;-81
2022/07/25 12:35:19;;;;;;;5.03;3.60;;;;;;;;;;13007297;22;20332;-82
2022/07/25 12:40:47;;;;;;;5.25;3.60;;;;;;;;;;13004203;22;20008;-82
2022/07/25 15:51:25;;;;;;;6.40;3.55;;;;;;;;;;12950497;22;20078;-84
2022/07/25 15:56:26;;;;;;;3.88;3.10;;;;;;;;;;12925218;23;20043;-85
2022/07/25 16:01:27;;;;;;;4.88;3.38;;;;;;;;;;12920036;23;20305;-84
2022/07/25 16:06:28;;;;;;;4.07;2.63;;;;;;;;;;12925649;23;20004;-83
2022/07/25 16:11:37;;;;;;;6.05;2.67;;;;;;;;;;12922739;23;20001;-84
2022/07/25 16:16:38;;;;;;;5.30;3.93;;;;;;;;;;12925774;23;20068;-84
2022/07/25 16:21:39;;;;;;;8.02;4.65;;;;;;;;;;12929392;23;20013;-84
2022/07/25 16:26:40;;;;;;;5.05;4.18;;;;;;;;;;12929618;23;20012;-85
2022/07/25 16:31:44;;;;;;;5.38;3.67;;;;;;;;;;12942223;23;19996;-85
2022/07/25 16:36:53;;;;;;;4.40;2.83;;;;;;;;;;12965296;23;20031;-86
2022/07/25 16:42:02;;;;;;;6.57;2.97;;;;;;;;;;12917249;23;20379;-86
2022/07/25 16:58:51;;;;;;;6.70;2.22;;;;;;;;;;12934776;23;20019;-85
2022/07/25 17:04:26;;;;;;;6.18;2.22;;;;;;;;;;12909569;23;20495;-84
2022/07/25 17:10:07;;;;;;;5.07;1.80;;;;;;;;;;12936638;23;20079;-86
2022/07/25 17:15:26;;;;;;;5.10;2.10;;;;;;;;;;12928692;23;20478;-86
2022/07/25 17:20:30;;;;;;;5.03;2.08;;;;;;;;;;12907729;23;20004;-85
2022/07/25 17:47:22;;;;;;;;;;;;;;;;;;12937048;23;20008;-85
2022/07/25 17:52:46;;;;;;;6.00;1.70;;;;;;;;;;12930619;23;19929;-85
2022/07/25 17:57:56;;;;;;;5.28;2.00;;;;;;;;;;12931644;23;20031;-85
2022/07/25 18:03:23;;;;;;;5.00;1.95;;;;;;;;;;12933515;23;20016;-85
2022/07/25 18:08:29;;;;;;;4.07;2.38;;;;;;;;;;12912421;23;20340;-86
2022/07/25 18:13:39;;;;;;;6.10;1.80;;;;;;;;;;12948322;23;20282;-86
2022/07/25 18:18:57;;;;;;;4.57;1.38;;;;;;;;;;12911071;23;20015;-86
2022/07/25 18:23:58;;;;;;;4.95;1.40;;;;;;;;;;12911852;23;20027;-86
2022/07/25 18:28:59;;;;;;;4.55;1.70;;;;;;;;;;12925997;23;20007;-83
2022/07/25 18:34:01;;;;;;;3.75;1.40;;;;;;;;;;12929984;23;20030;-86
2022/07/25 18:39:02;;;;;;;3.35;1.52;;;;;;;;;;12909205;23;20420;-86
2022/07/25 18:44:03;;;;;;;5.35;1.67;;;;;;;;;;12910203;23;20417;-86
2022/07/25 18:49:05;;;;;;;9.63;4.70;;;;;;;;;;12919568;23;20020;-85
2022/07/25 18:54:06;;;;;;;4.43;1.60;;;;;;;;;;12954447;23;20027;-85
